sensor_id;sensor_type;location;lat;lon;timestamp;P1;durP1;ratioP1;P2;durP2;ratioP2
55539;SDS011;41384;51.418;7.286;2023-04-25T00:00:13;8.85;;;4.38;;
55539;SDS011;41384;51.418;7.286;2023-04-25T00:02:39;12.20;;;4.43;;
55539;SDS011;41384;51.418;7.286;2023-04-25T00:05:04;11.95;;;4.10;;
55539;SDS011;41384;51.418;7.286;2023-04-25T00:07:30;14.98;;;4.88;;
55539;SDS011;41384;51.418;7.286;2023-04-25T00:09:57;12.45;;;4.30;;
55539;SDS011;41384;51.418;7.286;2023-04-25T00:12:22;12.13;;;4.72;;
55539;SDS011;41384;51.418;7.286;2023-04-25T00:14:47;10.73;;;4.40;;
55539;SDS011;41384;51.418;7.286;2023-04-25T00:17:14;10.60;;;3.95;;
55539;SDS011;41384;51.418;7.286;2023-04-25T00:19:40;9.43;;;3.70;;
55539;SDS011;41384;51.418;7.286;2023-04-25T00:22:05;10.52;;;4.05;;
55539;SDS011;41384;51.418;7.286;2023-04-25T00:24:30;11.30;;;4.10;;
55539;SDS011;41384;51.418;7.286;2023-04-25T00:26:56;8.63;;;4.05;;
55539;SDS011;41384;51.418;7.286;2023-04-25T00:29:21;8.05;;;3.85;;
55539;SDS011;41384;51.418;7.286;2023-04-25T00:31:46;11.32;;;3.65;;
55539;SDS011;41384;51.418;7.286;2023-04-25T00:34:11;12.93;;;3.83;;
55539;SDS011;41384;51.418;7.286;2023-04-25T00:36:37;11.55;;;4.00;;
55539;SDS011;41384;51.418;7.286;2023-04-25T00:39:03;10.98;;;3.85;;
55539;SDS011;41384;51.418;7.286;2023-04-25T00:41:29;9.15;;;3.60;;
55539;SDS011;41384;51.418;7.286;2023-04-25T00:43:55;10.10;;;3.83;;
55539;SDS011;41384;51.418;7.286;2023-04-25T00:46:21;13.10;;;3.92;;
55539;SDS011;41384;51.418;7.286;2023-04-25T00:48:46;8.52;;;4.20;;
55539;SDS011;41384;51.418;7.286;2023-04-25T00:51:14;11.75;;;4.65;;
55539;SDS011;41384;51.418;7.286;2023-04-25T00:53:42;9.10;;;4.93;;
55539;SDS011;41384;51.418;7.286;2023-04-25T00:56:08;9.70;;;4.07;;
55539;SDS011;41384;51.418;7.286;2023-04-25T00:58:33;10.80;;;4.43;;
55539;SDS011;41384;51.418;7.286;2023-04-25T01:00:58;12.68;;;5.25;;
55539;SDS011;41384;51.418;7.286;2023-04-25T01:03:25;9.23;;;4.68;;
55539;SDS011;41384;51.418;7.286;2023-04-25T01:05:53;11.45;;;4.65;;
55539;SDS011;41384;51.418;7.286;2023-04-25T01:08:18;14.30;;;4.22;;
55539;SDS011;41384;51.418;7.286;2023-04-25T01:10:48;9.50;;;4.28;;
55539;SDS011;41384;51.418;7.286;2023-04-25T01:13:13;8.00;;;4.25;;
55539;SDS011;41384;51.418;7.286;2023-04-25T01:15:39;10.70;;;4.07;;
55539;SDS011;41384;51.418;7.286;2023-04-25T01:18:05;11.02;;;4.45;;
55539;SDS011;41384;51.418;7.286;2023-04-25T01:20:31;10.15;;;4.10;;
55539;SDS011;41384;51.418;7.286;2023-04-25T01:22:58;7.30;;;3.85;;
55539;SDS011;41384;51.418;7.286;2023-04-25T01:25:23;14.07;;;4.45;;
55539;SDS011;41384;51.418;7.286;2023-04-25T01:27:49;12.63;;;4.97;;
55539;SDS011;41384;51.418;7.286;2023-04-25T01:30:14;8.15;;;4.20;;
55539;SDS011;41384;51.418;7.286;2023-04-25T01:32:40;9.77;;;4.45;;
55539;SDS011;41384;51.418;7.286;2023-04-25T01:35:07;14.23;;;4.57;;
55539;SDS011;41384;51.418;7.286;2023-04-25T01:37:36;8.13;;;4.18;;
55539;SDS011;41384;51.418;7.286;2023-04-25T01:40:05;8.95;;;4.10;;
55539;SDS011;41384;51.418;7.286;2023-04-25T01:42:32;10.00;;;4.57;;
55539;SDS011;41384;51.418;7.286;2023-04-25T01:44:59;11.63;;;4.68;;
55539;SDS011;41384;51.418;7.286;2023-04-25T01:47:25;8.82;;;4.30;;
55539;SDS011;41384;51.418;7.286;2023-04-25T01:49:50;12.50;;;4.60;;
55539;SDS011;41384;51.418;7.286;2023-04-25T01:52:16;12.93;;;5.25;;
55539;SDS011;41384;51.418;7.286;2023-04-25T01:54:41;8.63;;;4.82;;
55539;SDS011;41384;51.418;7.286;2023-04-25T01:57:09;9.80;;;5.30;;
55539;SDS011;41384;51.418;7.286;2023-04-25T01:59:35;10.35;;;4.68;;
55539;SDS011;41384;51.418;7.286;2023-04-25T02:02:01;10.90;;;4.88;;
55539;SDS011;41384;51.418;7.286;2023-04-25T02:04:28;16.20;;;5.18;;
55539;SDS011;41384;51.418;7.286;2023-04-25T02:06:54;10.52;;;5.80;;
55539;SDS011;41384;51.418;7.286;2023-04-25T02:09:19;11.18;;;5.45;;
55539;SDS011;41384;51.418;7.286;2023-04-25T02:11:45;12.32;;;6.03;;
55539;SDS011;41384;51.418;7.286;2023-04-25T02:14:10;11.30;;;5.85;;
55539;SDS011;41384;51.418;7.286;2023-04-25T02:16:35;9.60;;;5.90;;
55539;SDS011;41384;51.418;7.286;2023-04-25T02:19:01;12.35;;;5.80;;
55539;SDS011;41384;51.418;7.286;2023-04-25T02:21:26;10.85;;;5.50;;
55539;SDS011;41384;51.418;7.286;2023-04-25T02:23:52;12.05;;;5.82;;
55539;SDS011;41384;51.418;7.286;2023-04-25T02:26:17;15.10;;;5.75;;
55539;SDS011;41384;51.418;7.286;2023-04-25T02:28:42;14.13;;;6.18;;
55539;SDS011;41384;51.418;7.286;2023-04-25T02:31:07;8.82;;;4.97;;
55539;SDS011;41384;51.418;7.286;2023-04-25T02:33:33;10.40;;;5.20;;
55539;SDS011;41384;51.418;7.286;2023-04-25T02:35:58;12.10;;;4.70;;
55539;SDS011;41384;51.418;7.286;2023-04-25T02:38:23;12.13;;;4.68;;
55539;SDS011;41384;51.418;7.286;2023-04-25T02:40:48;10.07;;;5.30;;
55539;SDS011;41384;51.418;7.286;2023-04-25T02:43:14;10.20;;;5.22;;
55539;SDS011;41384;51.418;7.286;2023-04-25T02:45:40;14.25;;;5.28;;
55539;SDS011;41384;51.418;7.286;2023-04-25T02:48:06;9.65;;;4.82;;
55539;SDS011;41384;51.418;7.286;2023-04-25T02:50:31;12.55;;;5.88;;
55539;SDS011;41384;51.418;7.286;2023-04-25T02:52:56;13.95;;;5.35;;
55539;SDS011;41384;51.418;7.286;2023-04-25T02:55:22;9.93;;;5.40;;
55539;SDS011;41384;51.418;7.286;2023-04-25T02:57:47;10.73;;;6.03;;
55539;SDS011;41384;51.418;7.286;2023-04-25T03:00:12;11.57;;;5.88;;
55539;SDS011;41384;51.418;7.286;2023-04-25T03:02:39;13.45;;;6.00;;
55539;SDS011;41384;51.418;7.286;2023-04-25T03:05:04;15.30;;;5.60;;
55539;SDS011;41384;51.418;7.286;2023-04-25T03:07:29;10.75;;;5.43;;
55539;SDS011;41384;51.418;7.286;2023-04-25T03:09:55;11.38;;;5.78;;
55539;SDS011;41384;51.418;7.286;2023-04-25T03:12:21;13.38;;;5.88;;
55539;SDS011;41384;51.418;7.286;2023-04-25T03:14:46;9.93;;;5.25;;
55539;SDS011;41384;51.418;7.286;2023-04-25T03:17:12;11.63;;;5.85;;
55539;SDS011;41384;51.418;7.286;2023-04-25T03:19:37;13.68;;;5.53;;
55539;SDS011;41384;51.418;7.286;2023-04-25T03:22:02;9.38;;;4.75;;
55539;SDS011;41384;51.418;7.286;2023-04-25T03:24:27;12.50;;;4.50;;
55539;SDS011;41384;51.418;7.286;2023-04-25T03:26:53;11.20;;;4.90;;
55539;SDS011;41384;51.418;7.286;2023-04-25T03:29:18;10.88;;;5.07;;
55539;SDS011;41384;51.418;7.286;2023-04-25T03:31:43;9.15;;;4.82;;
55539;SDS011;41384;51.418;7.286;2023-04-25T03:34:09;10.63;;;5.40;;
55539;SDS011;41384;51.418;7.286;2023-04-25T03:36:34;9.02;;;5.82;;
55539;SDS011;41384;51.418;7.286;2023-04-25T03:38:59;9.95;;;4.63;;
55539;SDS011;41384;51.418;7.286;2023-04-25T03:41:25;10.60;;;4.97;;
55539;SDS011;41384;51.418;7.286;2023-04-25T03:43:50;14.10;;;5.22;;
55539;SDS011;41384;51.418;7.286;2023-04-25T03:46:15;13.43;;;5.53;;
55539;SDS011;41384;51.418;7.286;2023-04-25T03:48:41;12.95;;;5.30;;
55539;SDS011;41384;51.418;7.286;2023-04-25T03:51:06;13.90;;;6.10;;
55539;SDS011;41384;51.418;7.286;2023-04-25T03:53:31;11.50;;;5.35;;
55539;SDS011;41384;51.418;7.286;2023-04-25T03:55:57;12.77;;;5.43;;
55539;SDS011;41384;51.418;7.286;2023-04-25T03:58:22;15.02;;;5.60;;
55539;SDS011;41384;51.418;7.286;2023-04-25T04:00:49;11.65;;;5.45;;
55539;SDS011;41384;51.418;7.286;2023-04-25T04:03:14;12.93;;;5.35;;
55539;SDS011;41384;51.418;7.286;2023-04-25T04:05:40;12.43;;;5.80;;
55539;SDS011;41384;51.418;7.286;2023-04-25T04:08:05;13.43;;;5.65;;
55539;SDS011;41384;51.418;7.286;2023-04-25T04:10:31;11.10;;;6.35;;
55539;SDS011;41384;51.418;7.286;2023-04-25T04:12:56;14.80;;;5.32;;
55539;SDS011;41384;51.418;7.286;2023-04-25T04:15:21;12.43;;;5.70;;
55539;SDS011;41384;51.418;7.286;2023-04-25T04:17:47;9.98;;;5.32;;
55539;SDS011;41384;51.418;7.286;2023-04-25T04:20:13;13.70;;;5.82;;
55539;SDS011;41384;51.418;7.286;2023-04-25T04:22:38;13.18;;;5.85;;
55539;SDS011;41384;51.418;7.286;2023-04-25T04:25:04;13.90;;;5.53;;
55539;SDS011;41384;51.418;7.286;2023-04-25T04:27:32;14.05;;;5.72;;
55539;SDS011;41384;51.418;7.286;2023-04-25T04:29:57;7.93;;;3.40;;
55539;SDS011;41384;51.418;7.286;2023-04-25T04:32:23;8.38;;;3.33;;
55539;SDS011;41384;51.418;7.286;2023-04-25T04:34:53;8.50;;;2.80;;
55539;SDS011;41384;51.418;7.286;2023-04-25T04:37:19;8.27;;;2.33;;
55539;SDS011;41384;51.418;7.286;2023-04-25T04:39:45;8.50;;;2.25;;
55539;SDS011;41384;51.418;7.286;2023-04-25T04:42:11;7.25;;;2.58;;
55539;SDS011;41384;51.418;7.286;2023-04-25T04:44:36;8.07;;;2.58;;
55539;SDS011;41384;51.418;7.286;2023-04-25T04:47:03;6.82;;;2.30;;
55539;SDS011;41384;51.418;7.286;2023-04-25T04:49:31;10.02;;;2.63;;
55539;SDS011;41384;51.418;7.286;2023-04-25T04:51:56;4.97;;;2.20;;
55539;SDS011;41384;51.418;7.286;2023-04-25T04:54:21;7.15;;;2.30;;
55539;SDS011;41384;51.418;7.286;2023-04-25T04:56:47;8.10;;;2.55;;
55539;SDS011;41384;51.418;7.286;2023-04-25T04:59:12;8.93;;;2.45;;
55539;SDS011;41384;51.418;7.286;2023-04-25T05:01:37;9.00;;;2.17;;
55539;SDS011;41384;51.418;7.286;2023-04-25T05:04:03;10.02;;;2.35;;
55539;SDS011;41384;51.418;7.286;2023-04-25T05:06:29;8.48;;;2.50;;
55539;SDS011;41384;51.418;7.286;2023-04-25T05:08:55;9.75;;;2.65;;
55539;SDS011;41384;51.418;7.286;2023-04-25T05:11:21;6.47;;;2.67;;
55539;SDS011;41384;51.418;7.286;2023-04-25T05:13:47;6.53;;;2.47;;
55539;SDS011;41384;51.418;7.286;2023-04-25T05:16:12;9.30;;;2.55;;
55539;SDS011;41384;51.418;7.286;2023-04-25T05:18:38;6.55;;;3.28;;
55539;SDS011;41384;51.418;7.286;2023-04-25T05:21:04;9.20;;;2.58;;
55539;SDS011;41384;51.418;7.286;2023-04-25T05:23:30;5.72;;;2.58;;
55539;SDS011;41384;51.418;7.286;2023-04-25T05:25:56;6.50;;;2.67;;
55539;SDS011;41384;51.418;7.286;2023-04-25T05:28:21;5.55;;;2.63;;
55539;SDS011;41384;51.418;7.286;2023-04-25T05:30:47;6.90;;;2.90;;
55539;SDS011;41384;51.418;7.286;2023-04-25T05:33:12;6.30;;;2.55;;
55539;SDS011;41384;51.418;7.286;2023-04-25T05:35:38;11.02;;;2.80;;
55539;SDS011;41384;51.418;7.286;2023-04-25T05:38:03;7.93;;;3.05;;
55539;SDS011;41384;51.418;7.286;2023-04-25T05:40:28;6.90;;;2.75;;
55539;SDS011;41384;51.418;7.286;2023-04-25T05:42:53;7.88;;;3.00;;
55539;SDS011;41384;51.418;7.286;2023-04-25T05:45:19;9.77;;;3.33;;
55539;SDS011;41384;51.418;7.286;2023-04-25T05:47:44;9.45;;;3.50;;
55539;SDS011;41384;51.418;7.286;2023-04-25T05:50:09;12.27;;;4.32;;
55539;SDS011;41384;51.418;7.286;2023-04-25T05:52:35;9.15;;;3.80;;
55539;SDS011;41384;51.418;7.286;2023-04-25T05:55:00;10.50;;;3.60;;
55539;SDS011;41384;51.418;7.286;2023-04-25T05:57:26;10.18;;;4.07;;
55539;SDS011;41384;51.418;7.286;2023-04-25T05:59:52;11.40;;;4.50;;
55539;SDS011;41384;51.418;7.286;2023-04-25T06:02:18;12.85;;;3.95;;
55539;SDS011;41384;51.418;7.286;2023-04-25T06:04:45;12.27;;;4.57;;
55539;SDS011;41384;51.418;7.286;2023-04-25T06:07:11;13.30;;;4.07;;
55539;SDS011;41384;51.418;7.286;2023-04-25T06:09:36;12.55;;;4.25;;
55539;SDS011;41384;51.418;7.286;2023-04-25T06:12:03;11.98;;;3.90;;
55539;SDS011;41384;51.418;7.286;2023-04-25T06:14:29;12.50;;;4.78;;
55539;SDS011;41384;51.418;7.286;2023-04-25T06:16:55;10.55;;;4.45;;
55539;SDS011;41384;51.418;7.286;2023-04-25T06:19:20;11.02;;;4.10;;
55539;SDS011;41384;51.418;7.286;2023-04-25T06:21:45;14.82;;;4.03;;
55539;SDS011;41384;51.418;7.286;2023-04-25T06:24:11;14.93;;;4.28;;
55539;SDS011;41384;51.418;7.286;2023-04-25T06:26:36;10.82;;;4.85;;
55539;SDS011;41384;51.418;7.286;2023-04-25T06:29:01;10.57;;;4.65;;
55539;SDS011;41384;51.418;7.286;2023-04-25T06:31:27;10.93;;;5.00;;
55539;SDS011;41384;51.418;7.286;2023-04-25T06:33:53;13.43;;;4.65;;
55539;SDS011;41384;51.418;7.286;2023-04-25T06:36:19;17.65;;;5.35;;
55539;SDS011;41384;51.418;7.286;2023-04-25T06:38:50;15.10;;;4.20;;
55539;SDS011;41384;51.418;7.286;2023-04-25T06:41:16;14.07;;;4.50;;
55539;SDS011;41384;51.418;7.286;2023-04-25T06:43:41;11.88;;;4.40;;
55539;SDS011;41384;51.418;7.286;2023-04-25T06:46:07;14.13;;;4.57;;
55539;SDS011;41384;51.418;7.286;2023-04-25T06:48:32;13.52;;;5.22;;
55539;SDS011;41384;51.418;7.286;2023-04-25T06:50:57;15.35;;;5.75;;
55539;SDS011;41384;51.418;7.286;2023-04-25T06:53:22;16.95;;;5.50;;
55539;SDS011;41384;51.418;7.286;2023-04-25T06:55:48;13.48;;;5.53;;
55539;SDS011;41384;51.418;7.286;2023-04-25T06:58:13;13.85;;;5.90;;
55539;SDS011;41384;51.418;7.286;2023-04-25T07:00:38;12.60;;;5.30;;
55539;SDS011;41384;51.418;7.286;2023-04-25T07:03:03;15.77;;;6.18;;
55539;SDS011;41384;51.418;7.286;2023-04-25T07:05:29;15.02;;;5.13;;
55539;SDS011;41384;51.418;7.286;2023-04-25T07:07:54;15.30;;;4.80;;
55539;SDS011;41384;51.418;7.286;2023-04-25T07:10:19;14.75;;;5.50;;
55539;SDS011;41384;51.418;7.286;2023-04-25T07:12:46;14.57;;;6.20;;
55539;SDS011;41384;51.418;7.286;2023-04-25T07:15:11;18.52;;;6.47;;
55539;SDS011;41384;51.418;7.286;2023-04-25T07:17:37;12.07;;;5.35;;
55539;SDS011;41384;51.418;7.286;2023-04-25T07:20:02;12.60;;;4.97;;
55539;SDS011;41384;51.418;7.286;2023-04-25T07:22:28;8.40;;;4.68;;
55539;SDS011;41384;51.418;7.286;2023-04-25T07:24:54;16.88;;;5.00;;
55539;SDS011;41384;51.418;7.286;2023-04-25T07:27:19;11.13;;;5.07;;
55539;SDS011;41384;51.418;7.286;2023-04-25T07:29:45;12.52;;;4.50;;
55539;SDS011;41384;51.418;7.286;2023-04-25T07:32:10;13.57;;;4.70;;
55539;SDS011;41384;51.418;7.286;2023-04-25T07:34:37;11.02;;;4.50;;
55539;SDS011;41384;51.418;7.286;2023-04-25T07:37:03;11.20;;;3.78;;
55539;SDS011;41384;51.418;7.286;2023-04-25T07:39:29;9.38;;;4.18;;
55539;SDS011;41384;51.418;7.286;2023-04-25T07:41:54;9.20;;;4.10;;
55539;SDS011;41384;51.418;7.286;2023-04-25T07:44:19;9.70;;;3.92;;
55539;SDS011;41384;51.418;7.286;2023-04-25T07:46:45;10.88;;;4.20;;
55539;SDS011;41384;51.418;7.286;2023-04-25T07:49:10;14.90;;;3.85;;
55539;SDS011;41384;51.418;7.286;2023-04-25T07:51:35;9.18;;;3.42;;
55539;SDS011;41384;51.418;7.286;2023-04-25T07:54:00;10.77;;;3.10;;
55539;SDS011;41384;51.418;7.286;2023-04-25T07:56:26;9.35;;;2.95;;
55539;SDS011;41384;51.418;7.286;2023-04-25T07:58:51;14.55;;;3.35;;
55539;SDS011;41384;51.418;7.286;2023-04-25T08:01:16;7.82;;;3.20;;
55539;SDS011;41384;51.418;7.286;2023-04-25T08:03:41;7.57;;;2.97;;
55539;SDS011;41384;51.418;7.286;2023-04-25T08:06:07;8.77;;;3.33;;
55539;SDS011;41384;51.418;7.286;2023-04-25T08:08:32;11.57;;;3.28;;
55539;SDS011;41384;51.418;7.286;2023-04-25T08:10:57;8.27;;;2.63;;
55539;SDS011;41384;51.418;7.286;2023-04-25T08:13:22;8.88;;;2.88;;
55539;SDS011;41384;51.418;7.286;2023-04-25T08:15:48;7.88;;;2.83;;
55539;SDS011;41384;51.418;7.286;2023-04-25T08:18:13;14.35;;;2.75;;
55539;SDS011;41384;51.418;7.286;2023-04-25T08:20:38;9.55;;;2.80;;
55539;SDS011;41384;51.418;7.286;2023-04-25T08:23:04;9.55;;;2.47;;
55539;SDS011;41384;51.418;7.286;2023-04-25T08:25:29;8.07;;;2.08;;
55539;SDS011;41384;51.418;7.286;2023-04-25T08:27:54;8.88;;;2.47;;
55539;SDS011;41384;51.418;7.286;2023-04-25T08:30:20;8.07;;;2.35;;
55539;SDS011;41384;51.418;7.286;2023-04-25T08:32:46;9.73;;;2.13;;
55539;SDS011;41384;51.418;7.286;2023-04-25T08:35:11;6.93;;;2.58;;
55539;SDS011;41384;51.418;7.286;2023-04-25T08:37:36;7.97;;;2.13;;
55539;SDS011;41384;51.418;7.286;2023-04-25T08:40:03;6.10;;;1.95;;
55539;SDS011;41384;51.418;7.286;2023-04-25T08:42:31;6.43;;;2.30;;
55539;SDS011;41384;51.418;7.286;2023-04-25T08:44:58;11.35;;;2.33;;
55539;SDS011;41384;51.418;7.286;2023-04-25T08:47:25;10.48;;;2.05;;
55539;SDS011;41384;51.418;7.286;2023-04-25T08:49:52;6.97;;;2.00;;
55539;SDS011;41384;51.418;7.286;2023-04-25T08:52:21;6.63;;;1.98;;
55539;SDS011;41384;51.418;7.286;2023-04-25T08:54:51;9.27;;;2.55;;
55539;SDS011;41384;51.418;7.286;2023-04-25T08:57:17;8.50;;;2.03;;
55539;SDS011;41384;51.418;7.286;2023-04-25T08:59:43;9.13;;;1.83;;
55539;SDS011;41384;51.418;7.286;2023-04-25T09:02:11;10.38;;;2.10;;
55539;SDS011;41384;51.418;7.286;2023-04-25T09:04:39;6.70;;;1.90;;
55539;SDS011;41384;51.418;7.286;2023-04-25T09:07:05;11.15;;;2.47;;
55539;SDS011;41384;51.418;7.286;2023-04-25T09:09:31;8.70;;;2.30;;
55539;SDS011;41384;51.418;7.286;2023-04-25T09:11:56;10.85;;;2.40;;
55539;SDS011;41384;51.418;7.286;2023-04-25T09:14:22;4.35;;;1.90;;
55539;SDS011;41384;51.418;7.286;2023-04-25T09:19:22;5.45;;;2.00;;
55539;SDS011;41384;51.418;7.286;2023-04-25T09:21:51;6.32;;;2.00;;
55539;SDS011;41384;51.418;7.286;2023-04-25T09:24:29;11.30;;;2.50;;
55539;SDS011;41384;51.418;7.286;2023-04-25T09:26:59;5.82;;;2.00;;
55539;SDS011;41384;51.418;7.286;2023-04-25T09:29:29;6.22;;;2.40;;
55539;SDS011;41384;51.418;7.286;2023-04-25T09:32:29;4.10;;;1.80;;
55539;SDS011;41384;51.418;7.286;2023-04-25T09:34:49;8.50;;;2.17;;
55539;SDS011;41384;51.418;7.286;2023-04-25T09:37:23;11.13;;;2.08;;
55539;SDS011;41384;51.418;7.286;2023-04-25T09:39:53;7.95;;;2.20;;
55539;SDS011;41384;51.418;7.286;2023-04-25T09:42:30;5.47;;;1.70;;
55539;SDS011;41384;51.418;7.286;2023-04-25T09:44:56;7.38;;;2.05;;
55539;SDS011;41384;51.418;7.286;2023-04-25T09:47:23;4.65;;;1.52;;
55539;SDS011;41384;51.418;7.286;2023-04-25T09:49:50;4.05;;;1.73;;
55539;SDS011;41384;51.418;7.286;2023-04-25T09:52:17;4.75;;;1.52;;
55539;SDS011;41384;51.418;7.286;2023-04-25T09:54:44;7.13;;;1.65;;
55539;SDS011;41384;51.418;7.286;2023-04-25T09:57:11;5.28;;;1.52;;
55539;SDS011;41384;51.418;7.286;2023-04-25T09:59:39;5.15;;;1.55;;
55539;SDS011;41384;51.418;7.286;2023-04-25T10:02:08;8.88;;;1.67;;
55539;SDS011;41384;51.418;7.286;2023-04-25T10:04:35;5.55;;;1.50;;
55539;SDS011;41384;51.418;7.286;2023-04-25T10:07:03;4.68;;;1.52;;
55539;SDS011;41384;51.418;7.286;2023-04-25T10:09:30;3.35;;;1.20;;
55539;SDS011;41384;51.418;7.286;2023-04-25T10:11:59;3.05;;;1.20;;
55539;SDS011;41384;51.418;7.286;2023-04-25T10:14:25;3.70;;;1.20;;
55539;SDS011;41384;51.418;7.286;2023-04-25T10:16:50;5.32;;;1.58;;
55539;SDS011;41384;51.418;7.286;2023-04-25T10:19:18;2.03;;;1.25;;
55539;SDS011;41384;51.418;7.286;2023-04-25T10:24:30;5.78;;;1.38;;
55539;SDS011;41384;51.418;7.286;2023-04-25T10:26:57;4.35;;;1.42;;
55539;SDS011;41384;51.418;7.286;2023-04-25T10:29:25;2.00;;;1.13;;
55539;SDS011;41384;51.418;7.286;2023-04-25T10:31:51;4.03;;;1.20;;
55539;SDS011;41384;51.418;7.286;2023-04-25T10:34:17;5.43;;;1.10;;
55539;SDS011;41384;51.418;7.286;2023-04-25T10:36:44;4.75;;;1.27;;
55539;SDS011;41384;51.418;7.286;2023-04-25T10:39:15;2.88;;;1.00;;
55539;SDS011;41384;51.418;7.286;2023-04-25T10:41:48;3.47;;;1.00;;
55539;SDS011;41384;51.418;7.286;2023-04-25T10:44:27;3.17;;;1.13;;
55539;SDS011;41384;51.418;7.286;2023-04-25T10:46:55;3.05;;;1.30;;
55539;SDS011;41384;51.418;7.286;2023-04-25T10:49:29;5.70;;;1.20;;
55539;SDS011;41384;51.418;7.286;2023-04-25T10:52:10;4.35;;;1.27;;
55539;SDS011;41384;51.418;7.286;2023-04-25T10:54:55;1.92;;;0.90;;
55539;SDS011;41384;51.418;7.286;2023-04-25T10:57:31;5.90;;;1.50;;
55539;SDS011;41384;51.418;7.286;2023-04-25T11:00:18;3.38;;;1.35;;
55539;SDS011;41384;51.418;7.286;2023-04-25T11:02:48;5.15;;;1.00;;
55539;SDS011;41384;51.418;7.286;2023-04-25T11:07:58;4.80;;;1.20;;
55539;SDS011;41384;51.418;7.286;2023-04-25T11:10:28;10.43;;;1.40;;
55539;SDS011;41384;51.418;7.286;2023-04-25T11:12:54;3.08;;;1.13;;
55539;SDS011;41384;51.418;7.286;2023-04-25T11:15:20;5.10;;;1.75;;
55539;SDS011;41384;51.418;7.286;2023-04-25T11:17:45;1.85;;;1.20;;
55539;SDS011;41384;51.418;7.286;2023-04-25T11:20:11;5.13;;;1.25;;
55539;SDS011;41384;51.418;7.286;2023-04-25T11:22:39;6.55;;;1.40;;
55539;SDS011;41384;51.418;7.286;2023-04-25T11:25:08;5.00;;;1.90;;
55539;SDS011;41384;51.418;7.286;2023-04-25T11:27:49;5.65;;;1.73;;
55539;SDS011;41384;51.418;7.286;2023-04-25T11:30:18;4.38;;;1.65;;
55539;SDS011;41384;51.418;7.286;2023-04-25T11:32:45;7.53;;;2.13;;
55539;SDS011;41384;51.418;7.286;2023-04-25T11:35:10;3.67;;;1.90;;
55539;SDS011;41384;51.418;7.286;2023-04-25T11:37:36;7.88;;;1.60;;
55539;SDS011;41384;51.418;7.286;2023-04-25T11:40:04;4.78;;;1.75;;
55539;SDS011;41384;51.418;7.286;2023-04-25T11:42:43;4.00;;;1.42;;
55539;SDS011;41384;51.418;7.286;2023-04-25T11:45:12;4.65;;;1.27;;
55539;SDS011;41384;51.418;7.286;2023-04-25T11:47:38;4.10;;;1.17;;
55539;SDS011;41384;51.418;7.286;2023-04-25T11:50:04;3.30;;;1.23;;
55539;SDS011;41384;51.418;7.286;2023-04-25T11:52:41;5.93;;;1.30;;
55539;SDS011;41384;51.418;7.286;2023-04-25T11:55:08;6.88;;;1.58;;
55539;SDS011;41384;51.418;7.286;2023-04-25T11:57:45;4.57;;;1.30;;
55539;SDS011;41384;51.418;7.286;2023-04-25T12:00:14;4.10;;;1.27;;
55539;SDS011;41384;51.418;7.286;2023-04-25T12:02:54;4.72;;;1.38;;
55539;SDS011;41384;51.418;7.286;2023-04-25T12:05:29;3.67;;;1.40;;
55539;SDS011;41384;51.418;7.286;2023-04-25T12:07:58;4.43;;;1.10;;
55539;SDS011;41384;51.418;7.286;2023-04-25T12:10:23;4.07;;;1.00;;
55539;SDS011;41384;51.418;7.286;2023-04-25T12:12:50;2.63;;;1.00;;
55539;SDS011;41384;51.418;7.286;2023-04-25T12:15:16;5.72;;;1.42;;
55539;SDS011;41384;51.418;7.286;2023-04-25T12:17:46;3.17;;;1.10;;
55539;SDS011;41384;51.418;7.286;2023-04-25T12:20:13;6.63;;;1.10;;
55539;SDS011;41384;51.418;7.286;2023-04-25T12:22:41;6.65;;;1.15;;
55539;SDS011;41384;51.418;7.286;2023-04-25T12:25:12;4.90;;;0.95;;
55539;SDS011;41384;51.418;7.286;2023-04-25T12:28:19;2.53;;;0.98;;
55539;SDS011;41384;51.418;7.286;2023-04-25T12:31:02;4.75;;;1.10;;
55539;SDS011;41384;51.418;7.286;2023-04-25T12:33:33;3.90;;;0.90;;
55539;SDS011;41384;51.418;7.286;2023-04-25T12:38:39;4.28;;;1.00;;
55539;SDS011;41384;51.418;7.286;2023-04-25T12:41:06;2.78;;;1.00;;
55539;SDS011;41384;51.418;7.286;2023-04-25T12:43:31;3.75;;;1.00;;
55539;SDS011;41384;51.418;7.286;2023-04-25T12:45:57;9.55;;;3.25;;
55539;SDS011;41384;51.418;7.286;2023-04-25T12:48:22;5.05;;;1.27;;
55539;SDS011;41384;51.418;7.286;2023-04-25T12:50:49;14.93;;;8.98;;
55539;SDS011;41384;51.418;7.286;2023-04-25T12:53:16;4.63;;;1.63;;
55539;SDS011;41384;51.418;7.286;2023-04-25T12:55:43;2.85;;;1.25;;
55539;SDS011;41384;51.418;7.286;2023-04-25T12:58:11;3.45;;;0.88;;
55539;SDS011;41384;51.418;7.286;2023-04-25T13:00:37;3.80;;;1.23;;
55539;SDS011;41384;51.418;7.286;2023-04-25T13:03:03;3.45;;;0.98;;
55539;SDS011;41384;51.418;7.286;2023-04-25T13:05:29;4.38;;;1.33;;
55539;SDS011;41384;51.418;7.286;2023-04-25T13:07:55;4.85;;;0.80;;
55539;SDS011;41384;51.418;7.286;2023-04-25T13:10:20;3.38;;;1.08;;
55539;SDS011;41384;51.418;7.286;2023-04-25T13:12:46;8.80;;;2.65;;
55539;SDS011;41384;51.418;7.286;2023-04-25T13:15:11;3.03;;;1.00;;
55539;SDS011;41384;51.418;7.286;2023-04-25T13:17:39;2.13;;;0.70;;
55539;SDS011;41384;51.418;7.286;2023-04-25T13:20:06;2.60;;;1.10;;
55539;SDS011;41384;51.418;7.286;2023-04-25T13:22:33;3.40;;;1.13;;
55539;SDS011;41384;51.418;7.286;2023-04-25T13:25:02;3.72;;;1.13;;
55539;SDS011;41384;51.418;7.286;2023-04-25T13:27:28;4.22;;;1.08;;
55539;SDS011;41384;51.418;7.286;2023-04-25T13:29:53;4.63;;;1.05;;
55539;SDS011;41384;51.418;7.286;2023-04-25T13:32:19;5.80;;;1.20;;
55539;SDS011;41384;51.418;7.286;2023-04-25T13:34:44;4.03;;;1.08;;
55539;SDS011;41384;51.418;7.286;2023-04-25T13:37:10;3.08;;;1.30;;
55539;SDS011;41384;51.418;7.286;2023-04-25T13:39:35;4.25;;;1.13;;
55539;SDS011;41384;51.418;7.286;2023-04-25T13:42:00;3.25;;;1.50;;
55539;SDS011;41384;51.418;7.286;2023-04-25T13:44:26;4.68;;;1.58;;
55539;SDS011;41384;51.418;7.286;2023-04-25T13:46:52;5.35;;;1.20;;
55539;SDS011;41384;51.418;7.286;2023-04-25T13:49:17;3.63;;;1.30;;
55539;SDS011;41384;51.418;7.286;2023-04-25T13:51:42;2.42;;;1.10;;
55539;SDS011;41384;51.418;7.286;2023-04-25T13:54:08;1.90;;;1.63;;
55539;SDS011;41384;51.418;7.286;2023-04-25T13:56:33;3.28;;;0.90;;
55539;SDS011;41384;51.418;7.286;2023-04-25T13:58:58;3.35;;;1.13;;
55539;SDS011;41384;51.418;7.286;2023-04-25T14:01:23;3.72;;;0.90;;
55539;SDS011;41384;51.418;7.286;2023-04-25T14:03:49;3.33;;;1.00;;
55539;SDS011;41384;51.418;7.286;2023-04-25T14:06:14;6.70;;;1.65;;
55539;SDS011;41384;51.418;7.286;2023-04-25T14:08:46;4.95;;;1.40;;
55539;SDS011;41384;51.418;7.286;2023-04-25T14:11:11;3.80;;;1.00;;
55539;SDS011;41384;51.418;7.286;2023-04-25T14:13:37;6.70;;;0.93;;
55539;SDS011;41384;51.418;7.286;2023-04-25T14:16:02;3.95;;;1.45;;
55539;SDS011;41384;51.418;7.286;2023-04-25T14:18:27;3.03;;;0.80;;
55539;SDS011;41384;51.418;7.286;2023-04-25T14:20:53;5.82;;;1.00;;
55539;SDS011;41384;51.418;7.286;2023-04-25T14:23:18;2.40;;;1.00;;
55539;SDS011;41384;51.418;7.286;2023-04-25T14:25:43;5.22;;;0.90;;
55539;SDS011;41384;51.418;7.286;2023-04-25T14:28:10;4.35;;;1.10;;
55539;SDS011;41384;51.418;7.286;2023-04-25T14:30:35;3.20;;;1.40;;
55539;SDS011;41384;51.418;7.286;2023-04-25T14:33:00;2.38;;;1.10;;
55539;SDS011;41384;51.418;7.286;2023-04-25T14:35:26;5.97;;;1.05;;
55539;SDS011;41384;51.418;7.286;2023-04-25T14:37:51;3.13;;;0.90;;
55539;SDS011;41384;51.418;7.286;2023-04-25T14:40:18;4.50;;;1.35;;
55539;SDS011;41384;51.418;7.286;2023-04-25T14:42:43;2.92;;;1.00;;
55539;SDS011;41384;51.418;7.286;2023-04-25T14:45:08;9.95;;;5.45;;
55539;SDS011;41384;51.418;7.286;2023-04-25T14:47:34;1.83;;;0.95;;
55539;SDS011;41384;51.418;7.286;2023-04-25T14:50:00;4.28;;;0.88;;